createdAt,value
2022-11-10T00:01:06.528Z,98690.41
2022-11-10T00:03:33.773Z,98702.50
2022-11-10T00:06:02.700Z,98703.25
2022-11-10T00:08:29.414Z,98708.03
2022-11-10T00:10:58.983Z,98706.03
2022-11-10T00:13:27.866Z,98715.41
2022-11-10T00:16:13.700Z,98726.34
2022-11-10T00:18:40.338Z,98717.72
2022-11-10T00:21:09.701Z,98719.66
2022-11-10T00:23:36.767Z,98726.25
2022-11-10T00:26:04.020Z,98719.25
2022-11-10T00:28:32.362Z,98720.81
2022-11-10T00:30:59.230Z,98719.66
2022-11-10T00:33:25.870Z,98726.31
2022-11-10T00:35:52.528Z,98723.59
2022-11-10T00:38:19.146Z,98724.31
2022-11-10T00:43:25.316Z,98734.47
2022-11-10T00:45:53.070Z,98739.94
2022-11-10T00:48:19.696Z,98747.03
2022-11-10T00:50:46.351Z,98752.88
2022-11-10T00:53:13.255Z,98751.25
2022-11-10T00:55:41.182Z,98750.41
2022-11-10T00:58:08.188Z,98749.66
2022-11-10T01:00:34.834Z,98756.72
2022-11-10T01:03:02.723Z,98760.31
2022-11-10T01:05:32.234Z,98756.41
2022-11-10T01:07:59.741Z,98764.44
2022-11-10T01:10:27.140Z,98773.88
2022-11-10T01:12:54.080Z,98770.69
2022-11-10T01:15:26.165Z,98769.91
2022-11-10T01:17:55.458Z,98774.94
2022-11-10T01:20:23.070Z,98787.81
2022-11-10T01:22:49.710Z,98790.16
2022-11-10T01:25:16.333Z,98784.69
2022-11-10T01:27:42.913Z,98794.91
2022-11-10T01:30:09.890Z,98787.84
2022-11-10T01:32:36.500Z,98789.41
2022-11-10T01:35:03.180Z,98800.38
2022-11-10T01:37:29.821Z,98805.00
2022-11-10T01:39:56.521Z,98798.63
2022-11-10T01:42:28.666Z,98792.03
2022-11-10T01:45:23.024Z,98806.84
2022-11-10T01:47:55.543Z,98801.06
2022-11-10T01:50:25.730Z,98807.94
2022-11-10T01:52:56.131Z,98811.38
2022-11-10T01:55:24.118Z,98818.41
2022-11-10T01:57:51.453Z,98814.31
2022-11-10T02:00:19.375Z,98813.63
2022-11-10T02:03:19.016Z,98812.66
2022-11-10T02:05:46.062Z,98816.84
2022-11-10T02:08:15.929Z,98817.13
2022-11-10T02:10:42.859Z,98818.16
2022-11-10T02:13:11.162Z,98822.59
2022-11-10T02:15:38.018Z,98829.88
2022-11-10T02:18:04.605Z,98831.25
2022-11-10T02:20:31.212Z,98832.31
2022-11-10T02:22:57.810Z,98842.19
2022-11-10T02:25:30.405Z,98835.91
2022-11-10T02:27:56.975Z,98837.84
2022-11-10T02:30:27.459Z,98842.47
2022-11-10T02:32:54.475Z,98846.06
2022-11-10T02:35:21.144Z,98842.75
2022-11-10T02:37:47.727Z,98854.03
2022-11-10T02:40:14.413Z,98863.00
2022-11-10T02:42:41.018Z,98867.75
2022-11-10T02:45:08.898Z,98857.44
2022-11-10T02:47:35.730Z,98865.91
2022-11-10T02:50:02.329Z,98869.59
2022-11-10T02:52:28.867Z,98876.28
2022-11-10T02:54:55.478Z,98872.38
2022-11-10T02:57:22.033Z,98879.47
2022-11-10T02:59:48.571Z,98890.81
2022-11-10T03:02:15.607Z,98886.34
2022-11-10T03:04:42.333Z,98888.84
2022-11-10T03:07:08.960Z,98895.31
2022-11-10T03:09:35.852Z,98896.03
2022-11-10T03:12:02.436Z,98901.28
2022-11-10T03:14:28.994Z,98900.56
2022-11-10T03:16:55.568Z,98903.75
2022-11-10T03:19:22.157Z,98906.75
2022-11-10T03:21:48.717Z,98909.13
2022-11-10T03:24:15.359Z,98904.00
2022-11-10T03:26:41.918Z,98916.09
2022-11-10T03:29:08.622Z,98923.25
2022-11-10T03:31:35.218Z,98924.91
2022-11-10T03:34:01.783Z,98924.47
2022-11-10T03:36:28.387Z,98923.16
2022-11-10T03:38:54.941Z,98930.22
2022-11-10T03:41:21.488Z,98936.41
2022-11-10T03:43:49.405Z,98938.03
2022-11-10T03:46:17.139Z,98937.97
2022-11-10T03:48:46.311Z,98933.38
2022-11-10T03:51:17.335Z,98940.38
2022-11-10T03:53:43.933Z,98939.56
2022-11-10T03:56:11.352Z,98939.47
2022-11-10T03:58:38.049Z,98952.44
2022-11-10T04:01:04.864Z,98947.75
2022-11-10T04:03:31.505Z,98952.09
2022-11-10T04:06:16.905Z,98955.69
2022-11-10T04:09:01.518Z,98956.28
2022-11-10T04:11:48.383Z,98962.16
2022-11-10T04:14:34.212Z,98959.03
2022-11-10T04:17:01.809Z,98965.28
2022-11-10T04:19:28.839Z,98974.72
2022-11-10T04:21:55.605Z,98978.56
2022-11-10T04:24:22.264Z,98977.00
2022-11-10T04:26:49.545Z,98977.53
2022-11-10T04:29:18.643Z,98984.63
2022-11-10T04:31:45.323Z,98985.75
2022-11-10T04:34:14.174Z,98989.28
2022-11-10T04:36:42.798Z,98993.25
2022-11-10T04:39:10.881Z,98998.28
2022-11-10T04:41:37.948Z,98993.94
2022-11-10T04:44:04.996Z,98994.66
2022-11-10T04:46:35.798Z,99001.13
2022-11-10T04:49:03.848Z,98997.59
2022-11-10T04:51:36.338Z,99014.44
2022-11-10T04:54:03.563Z,99009.13
2022-11-10T04:56:30.588Z,99018.41
2022-11-10T04:58:57.190Z,99019.66
2022-11-10T05:01:26.342Z,99030.56
2022-11-10T05:03:54.303Z,99028.19
2022-11-10T05:06:21.416Z,99024.75
2022-11-10T05:08:48.352Z,99032.94
2022-11-10T05:11:15.275Z,99043.78
2022-11-10T05:13:42.905Z,99055.88
2022-11-10T05:16:09.974Z,99052.41
2022-11-10T05:18:37.153Z,99056.25
2022-11-10T05:21:04.154Z,99057.41
2022-11-10T05:23:39.796Z,99055.09
2022-11-10T05:26:15.217Z,99062.72
2022-11-10T05:28:43.819Z,99071.13
2022-11-10T05:31:10.909Z,99072.38
2022-11-10T05:33:38.273Z,99071.19
2022-11-10T05:36:06.522Z,99075.22
2022-11-10T05:41:10.710Z,99076.88
2022-11-10T05:43:37.340Z,99069.94
2022-11-10T05:46:03.977Z,99072.13
2022-11-10T05:48:30.661Z,99081.19
2022-11-10T05:50:57.264Z,99077.03
2022-11-10T05:53:24.223Z,99077.38
2022-11-10T05:55:51.131Z,99078.13
2022-11-10T05:58:17.751Z,99083.91
2022-11-10T06:00:44.368Z,99086.78
2022-11-10T06:03:18.792Z,99096.91
2022-11-10T06:05:46.287Z,99098.38
2022-11-10T06:08:13.014Z,99100.44
2022-11-10T06:10:39.861Z,99104.53
2022-11-10T06:13:06.861Z,99105.66
2022-11-10T06:15:33.449Z,99117.16
2022-11-10T06:18:00.102Z,99123.31
2022-11-10T06:20:28.216Z,99132.97
2022-11-10T06:23:14.082Z,99143.44
2022-11-10T06:25:41.787Z,99155.69
2022-11-10T06:28:09.702Z,99150.22
2022-11-10T06:30:37.900Z,99156.03
2022-11-10T06:33:04.807Z,99159.22
2022-11-10T06:35:31.688Z,99162.72
2022-11-10T06:38:02.560Z,99165.94
2022-11-10T06:40:30.193Z,99172.50
2022-11-10T06:42:57.134Z,99189.41
2022-11-10T06:45:25.372Z,99192.72
2022-11-10T06:48:05.424Z,99200.81
2022-11-10T06:50:32.484Z,99201.13
2022-11-10T06:53:00.336Z,99208.63
2022-11-10T06:55:27.525Z,99210.22
2022-11-10T06:57:54.564Z,99225.94
2022-11-10T07:00:21.781Z,99222.53
2022-11-10T07:02:48.559Z,99235.50
2022-11-10T07:05:15.572Z,99244.34
2022-11-10T07:07:42.813Z,99243.44
2022-11-10T07:10:09.690Z,99242.31
2022-11-10T07:12:36.341Z,99253.22
2022-11-10T07:15:03.030Z,99259.13
2022-11-10T07:17:29.634Z,99261.41
2022-11-10T07:19:56.221Z,99277.34
2022-11-10T07:22:23.632Z,99274.94
2022-11-10T07:24:50.227Z,99272.47
2022-11-10T07:27:16.805Z,99282.94
2022-11-10T07:29:43.459Z,99279.13
2022-11-10T07:32:10.016Z,99287.69
2022-11-10T07:34:36.592Z,99289.59
2022-11-10T07:37:03.153Z,99280.94
2022-11-10T07:39:29.716Z,99289.59
2022-11-10T07:41:56.354Z,99292.09
2022-11-10T07:44:22.917Z,99299.50
2022-11-10T07:46:49.921Z,99301.44
2022-11-10T07:49:16.558Z,99299.19
2022-11-10T07:51:43.636Z,99312.59
2022-11-10T07:54:10.508Z,99314.44
2022-11-10T07:56:37.142Z,99314.88
2022-11-10T07:59:03.865Z,99319.53
2022-11-10T08:01:30.586Z,99322.03
2022-11-10T08:03:57.421Z,99325.91
2022-11-10T08:06:24.148Z,99334.31
2022-11-10T08:08:50.887Z,99330.19
2022-11-10T08:11:17.505Z,99332.81
2022-11-10T08:13:44.118Z,99334.13
2022-11-10T08:16:10.726Z,99341.06
2022-11-10T08:18:37.351Z,99347.69
2022-11-10T08:21:05.874Z,99347.13
2022-11-10T08:23:33.351Z,99337.94
2022-11-10T08:26:01.583Z,99341.03
2022-11-10T08:28:28.783Z,99348.91
2022-11-10T08:30:55.514Z,99357.72
2022-11-10T08:33:22.720Z,99362.09
2022-11-10T08:35:51.677Z,99360.56
2022-11-10T08:38:23.145Z,99359.75
2022-11-10T08:40:49.980Z,99359.63
2022-11-10T08:43:18.402Z,99356.28
2022-11-10T08:45:45.459Z,99357.13
2022-11-10T08:48:14.479Z,99356.19
2022-11-10T08:50:41.982Z,99362.03
2022-11-10T08:53:13.125Z,99367.38
2022-11-10T08:55:40.830Z,99365.56
2022-11-10T08:58:08.730Z,99372.47
2022-11-10T09:00:35.524Z,99375.03
2022-11-10T09:03:07.988Z,99379.28
2022-11-10T09:05:36.236Z,99380.16
2022-11-10T09:08:04.329Z,99381.13
2022-11-10T09:10:32.354Z,99384.06
2022-11-10T09:13:01.105Z,99389.06
2022-11-10T09:15:28.235Z,99400.97
2022-11-10T09:17:54.827Z,99404.69
2022-11-10T09:20:21.509Z,99392.22
2022-11-10T09:22:48.117Z,99399.31
2022-11-10T09:25:14.732Z,99401.78
2022-11-10T09:27:41.348Z,99406.94
2022-11-10T09:32:46.954Z,99408.31
2022-11-10T09:35:13.916Z,99404.78
2022-11-10T09:37:41.264Z,99413.38
2022-11-10T09:40:17.755Z,99419.41
2022-11-10T09:42:46.861Z,99434.63
2022-11-10T09:45:25.280Z,99436.91
2022-11-10T09:48:02.174Z,99438.66
2022-11-10T09:50:55.241Z,99440.28
2022-11-10T09:53:27.141Z,99438.97
2022-11-10T09:55:59.050Z,99439.56
2022-11-10T09:58:33.739Z,99446.41
2022-11-10T10:01:12.251Z,99451.38
2022-11-10T10:03:52.975Z,99452.53
2022-11-10T10:06:22.086Z,99457.16
2022-11-10T10:09:08.257Z,99447.34
2022-11-10T10:11:48.720Z,99457.41
2022-11-10T10:14:29.907Z,99456.84
2022-11-10T10:17:06.217Z,99447.50
2022-11-10T10:19:56.803Z,99454.41
2022-11-10T10:22:48.782Z,99458.16
2022-11-10T10:25:27.009Z,99452.84
2022-11-10T10:28:22.904Z,99446.56
2022-11-10T10:30:49.925Z,99448.84
2022-11-10T10:33:21.186Z,99454.34
2022-11-10T10:35:50.628Z,99457.31
2022-11-10T10:38:26.823Z,99458.81
2022-11-10T10:41:00.300Z,99465.03
2022-11-10T10:43:26.906Z,99462.69
2022-11-10T10:46:15.929Z,99452.53
2022-11-10T10:48:42.752Z,99461.13
2022-11-10T10:51:09.459Z,99446.34
2022-11-10T10:53:47.688Z,99450.03
2022-11-10T10:56:25.107Z,99453.19
2022-11-10T10:59:00.619Z,99456.38
2022-11-10T11:04:37.156Z,99449.13
2022-11-10T11:07:06.436Z,99440.78
2022-11-10T11:09:42.695Z,99449.34
2022-11-10T11:12:13.940Z,99446.66
2022-11-10T11:14:45.655Z,99453.25
2022-11-10T11:17:14.285Z,99458.44
2022-11-10T11:19:41.185Z,99453.69
2022-11-10T11:22:39.441Z,99448.31
2022-11-10T11:25:18.587Z,99448.06
2022-11-10T11:28:06.116Z,99447.16
2022-11-10T11:36:16.514Z,99461.53
2022-11-10T11:38:52.025Z,99455.28
2022-11-10T11:41:21.061Z,99454.56
2022-11-10T11:44:09.535Z,99444.84
2022-11-10T11:46:43.672Z,99455.53
2022-11-10T11:49:35.549Z,99447.91
2022-11-10T11:52:29.009Z,99450.63
2022-11-10T11:55:01.400Z,99447.78
2022-11-10T11:57:40.461Z,99440.16
2022-11-10T12:00:14.092Z,99449.53
2022-11-10T12:03:10.251Z,99453.34
2022-11-10T12:06:18.380Z,99444.50
2022-11-10T12:09:06.535Z,99444.00
2022-11-10T12:11:33.060Z,99430.53
2022-11-10T12:14:26.873Z,99436.09
2022-11-10T12:17:12.812Z,99428.69
2022-11-10T12:20:21.898Z,99429.69
2022-11-10T12:23:01.213Z,99435.66
2022-11-10T12:25:46.010Z,99445.47
2022-11-10T12:28:25.789Z,99446.81
2022-11-10T12:31:01.738Z,99441.84
2022-11-10T12:33:38.184Z,99439.75
2022-11-10T12:36:11.732Z,99431.22
2022-11-10T12:39:06.276Z,99443.69
2022-11-10T12:41:42.114Z,99439.75
2022-11-10T12:44:21.395Z,99438.38
2022-11-10T12:46:53.525Z,99433.91
2022-11-10T12:49:32.582Z,99434.97
2022-11-10T12:52:11.095Z,99433.19
2022-11-10T12:54:39.219Z,99429.75
2022-11-10T12:57:12.797Z,99431.78
2022-11-10T12:59:42.222Z,99431.09
2022-11-10T13:02:25.421Z,99427.69
2022-11-10T13:05:13.683Z,99432.81
2022-11-10T13:07:43.069Z,99435.22
2022-11-10T13:10:22.710Z,99437.25
2022-11-10T13:13:04.499Z,99437.53
2022-11-10T13:15:36.823Z,99439.81
2022-11-10T13:18:08.738Z,99445.81
2022-11-10T13:20:48.387Z,99450.75
2022-11-10T13:23:27.135Z,99455.84
2022-11-10T13:29:29.486Z,99467.06
2022-11-10T13:31:58.044Z,99459.25
2022-11-10T13:34:32.871Z,99456.41
2022-11-10T13:39:39.551Z,99448.75
2022-11-10T13:42:09.040Z,99444.34
2022-11-10T13:44:42.431Z,99445.47
2022-11-10T13:47:09.027Z,99444.78
2022-11-10T13:49:56.733Z,99447.84
2022-11-10T13:52:41.764Z,99456.47
2022-11-10T13:55:18.955Z,99461.09
2022-11-10T13:58:04.982Z,99467.81
2022-11-10T14:00:35.976Z,99465.91
2022-11-10T14:03:07.339Z,99463.81
2022-11-10T14:05:42.051Z,99466.53
2022-11-10T14:08:17.338Z,99468.38
2022-11-10T14:10:52.403Z,99471.09
2022-11-10T14:13:34.018Z,99478.13
2022-11-10T14:16:01.144Z,99474.16
2022-11-10T14:18:41.327Z,99480.81
2022-11-10T14:21:12.381Z,99477.16
2022-11-10T14:23:52.275Z,99480.50
2022-11-10T14:26:31.728Z,99482.19
2022-11-10T14:29:26.760Z,99479.72
2022-11-10T14:31:53.393Z,99478.81
2022-11-10T14:34:20.234Z,99481.69
2022-11-10T14:37:00.594Z,99481.56
2022-11-10T14:39:33.579Z,99487.22
2022-11-10T14:42:02.914Z,99486.69
2022-11-10T14:44:30.673Z,99486.56
2022-11-10T14:47:24.106Z,99494.31
2022-11-10T14:50:15.214Z,99502.81
2022-11-10T14:52:44.180Z,99499.66
2022-11-10T14:55:17.854Z,99504.31
2022-11-10T14:57:51.075Z,99517.56
2022-11-10T15:00:22.238Z,99515.59
2022-11-10T15:02:49.242Z,99512.00
2022-11-10T15:05:16.537Z,99519.25
2022-11-10T15:07:44.109Z,99524.16
2022-11-10T15:10:21.541Z,99523.13
2022-11-10T15:13:17.910Z,99531.59
2022-11-10T15:15:44.725Z,99523.13
2022-11-10T15:18:29.367Z,99531.31
2022-11-10T15:21:01.861Z,99528.34
2022-11-10T15:23:36.578Z,99526.16
2022-11-10T15:26:16.530Z,99522.91
2022-11-10T15:28:43.826Z,99523.63
2022-11-10T15:31:14.258Z,99538.78
2022-11-10T15:33:47.415Z,99535.22
2022-11-10T15:36:28.394Z,99541.34
2022-11-10T15:39:13.047Z,99540.69
2022-11-10T15:41:58.689Z,99544.34
2022-11-10T15:44:28.251Z,99550.00
2022-11-10T15:46:56.170Z,99551.31
2022-11-10T15:49:24.581Z,99549.59
2022-11-10T15:51:53.242Z,99552.88
2022-11-10T15:54:22.667Z,99562.00
2022-11-10T15:56:49.236Z,99561.63
2022-11-10T15:59:15.828Z,99558.69
2022-11-10T16:01:42.474Z,99566.81
2022-11-10T16:04:10.252Z,99569.56
2022-11-10T16:06:37.279Z,99570.81
2022-11-10T16:09:04.984Z,99576.00
2022-11-10T16:11:32.361Z,99574.88
2022-11-10T16:14:00.466Z,99575.09
2022-11-10T16:16:27.160Z,99575.47
2022-11-10T16:18:53.967Z,99574.00
2022-11-10T16:21:25.759Z,99581.06
2022-11-10T16:23:53.427Z,99580.88
2022-11-10T16:26:23.865Z,99579.25
2022-11-10T16:28:50.873Z,99585.09
2022-11-10T16:31:19.549Z,99585.44
2022-11-10T16:33:46.752Z,99586.13
2022-11-10T16:36:26.362Z,99583.00
2022-11-10T16:38:54.229Z,99596.34
2022-11-10T16:41:22.370Z,99603.06
2022-11-10T16:43:49.054Z,99591.78
2022-11-10T16:46:29.866Z,99598.63
2022-11-10T16:48:58.833Z,99608.88
2022-11-10T16:51:29.408Z,99615.13
2022-11-10T16:53:56.593Z,99620.97
2022-11-10T16:56:23.283Z,99622.00
2022-11-10T16:58:49.924Z,99637.84
2022-11-10T17:01:22.452Z,99630.97
2022-11-10T17:03:55.639Z,99637.81
2022-11-10T17:06:24.972Z,99636.97
2022-11-10T17:08:54.354Z,99634.59
2022-11-10T17:11:21.475Z,99638.44
2022-11-10T17:13:48.078Z,99637.84
2022-11-10T17:16:36.230Z,99626.06
2022-11-10T17:19:05.613Z,99631.28
2022-11-10T17:21:34.705Z,99635.53
2022-11-10T17:24:02.749Z,99633.78
2022-11-10T17:26:29.877Z,99629.75
2022-11-10T17:28:56.681Z,99627.88
2022-11-10T17:31:23.309Z,99633.13
2022-11-10T17:33:49.955Z,99637.13
2022-11-10T17:36:22.796Z,99639.81
2022-11-10T17:38:51.303Z,99644.34
2022-11-10T17:41:19.888Z,99647.06
2022-11-10T17:43:47.261Z,99652.03
2022-11-10T17:46:15.190Z,99659.34
2022-11-10T17:48:42.424Z,99662.56
2022-11-10T17:51:17.108Z,99664.94
2022-11-10T17:53:43.857Z,99666.19
2022-11-10T17:56:10.527Z,99665.09
2022-11-10T17:58:37.192Z,99656.22
2022-11-10T18:01:18.653Z,99662.88
2022-11-10T18:03:46.652Z,99663.66
2022-11-10T18:06:17.651Z,99669.50
2022-11-10T18:08:44.688Z,99666.34
2022-11-10T18:11:14.267Z,99670.25
2022-11-10T18:13:42.219Z,99670.94
2022-11-10T18:16:11.094Z,99677.50
2022-11-10T18:18:38.567Z,99673.47
2022-11-10T18:21:06.508Z,99678.94
2022-11-10T18:23:33.351Z,99688.78
2022-11-10T18:26:04.634Z,99691.56
2022-11-10T18:28:31.200Z,99702.28
2022-11-10T18:30:57.803Z,99691.63
2022-11-10T18:33:24.791Z,99700.19
2022-11-10T18:35:51.684Z,99696.16
2022-11-10T18:38:18.276Z,99690.84
2022-11-10T18:40:44.908Z,99696.44
2022-11-10T18:43:11.492Z,99700.03
2022-11-10T18:45:38.313Z,99700.78
2022-11-10T18:48:05.294Z,99698.50
2022-11-10T18:50:32.115Z,99700.03
2022-11-10T18:52:58.727Z,99698.06
2022-11-10T18:55:25.805Z,99696.47
2022-11-10T18:57:53.023Z,99700.66
2022-11-10T19:00:19.839Z,99697.63
2022-11-10T19:02:46.422Z,99687.81
2022-11-10T19:05:13.109Z,99691.25
2022-11-10T19:07:39.811Z,99688.59
2022-11-10T19:10:06.638Z,99693.38
2022-11-10T19:12:33.279Z,99690.50
2022-11-10T19:14:59.929Z,99686.31
2022-11-10T19:17:26.534Z,99686.25
2022-11-10T19:22:24.395Z,99700.94
2022-11-10T19:25:07.506Z,99694.03
2022-11-10T19:27:34.756Z,99700.28
2022-11-10T19:30:01.334Z,99702.22
2022-11-10T19:32:29.665Z,99707.41
2022-11-10T19:34:56.267Z,99709.47
2022-11-10T19:37:22.871Z,99701.91
2022-11-10T19:39:49.449Z,99702.56
2022-11-10T19:42:16.124Z,99697.81
2022-11-10T19:47:13.930Z,99708.88
2022-11-10T19:49:40.571Z,99714.94
2022-11-10T19:52:07.246Z,99710.81
2022-11-10T19:54:33.907Z,99704.38
2022-11-10T19:57:01.300Z,99700.53
2022-11-10T19:59:28.026Z,99698.16
2022-11-10T20:01:56.504Z,99712.97
2022-11-10T20:04:23.149Z,99709.59
2022-11-10T20:07:09.767Z,99709.09
2022-11-10T20:09:36.418Z,99729.47
2022-11-10T20:14:36.307Z,99724.47
2022-11-10T20:17:02.935Z,99722.41
2022-11-10T20:19:29.513Z,99723.03
2022-11-10T20:21:56.114Z,99719.97
2022-11-10T20:24:22.663Z,99728.84
2022-11-10T20:26:50.105Z,99733.31
2022-11-10T20:29:16.652Z,99749.34
2022-11-10T20:31:43.239Z,99738.91
2022-11-10T20:36:48.554Z,99743.25
2022-11-10T20:39:15.165Z,99741.47
2022-11-10T20:41:41.822Z,99746.00
2022-11-10T20:44:08.438Z,99748.06
2022-11-10T20:49:23.106Z,99758.78
2022-11-10T20:51:49.692Z,99766.97
2022-11-10T20:54:17.506Z,99775.81
2022-11-10T20:56:44.112Z,99773.41
2022-11-10T20:59:11.255Z,99773.56
2022-11-10T21:01:38.051Z,99772.63
2022-11-10T21:04:06.290Z,99771.81
2022-11-10T21:06:32.987Z,99766.53
2022-11-10T21:08:59.808Z,99759.47
2022-11-10T21:11:45.149Z,99755.00
2022-11-10T21:14:11.812Z,99741.84
2022-11-10T21:16:38.528Z,99740.25
2022-11-10T21:19:05.229Z,99748.56
2022-11-10T21:21:35.044Z,99758.38
2022-11-10T21:24:06.436Z,99749.88
2022-11-10T21:26:34.631Z,99746.47
2022-11-10T21:29:02.563Z,99748.34
2022-11-10T21:31:30.742Z,99745.84
2022-11-10T21:33:58.212Z,99744.25
2022-11-10T21:36:29.200Z,99745.84
2022-11-10T21:38:56.899Z,99752.56
2022-11-10T21:41:23.521Z,99760.88
2022-11-10T21:43:50.228Z,99745.50
2022-11-10T21:46:17.009Z,99749.16
2022-11-10T21:48:43.648Z,99753.31
2022-11-10T21:51:12.543Z,99745.53
2022-11-10T21:53:39.914Z,99751.94
2022-11-10T21:56:08.811Z,99752.06
2022-11-10T21:58:36.112Z,99745.50
2022-11-10T22:01:06.832Z,99748.72
2022-11-10T22:03:35.262Z,99746.63
2022-11-10T22:06:05.616Z,99747.47
2022-11-10T22:08:32.638Z,99726.47
2022-11-10T22:11:17.952Z,99731.91
2022-11-10T22:14:03.420Z,99730.91
2022-11-10T22:16:52.162Z,99726.06
2022-11-10T22:19:19.482Z,99727.69
2022-11-10T22:21:46.112Z,99728.78
2022-11-10T22:24:28.253Z,99728.78
2022-11-10T22:27:02.775Z,99730.47
2022-11-10T22:29:32.247Z,99739.59
2022-11-10T22:32:02.366Z,99736.75
2022-11-10T22:34:29.706Z,99739.63
2022-11-10T22:36:56.433Z,99737.72
2022-11-10T22:39:23.129Z,99744.97
2022-11-10T22:42:08.283Z,99741.16
2022-11-10T22:44:34.801Z,99742.88
2022-11-10T22:47:01.483Z,99745.16
2022-11-10T22:49:28.061Z,99737.00
2022-11-10T22:51:55.558Z,99740.78
2022-11-10T22:54:23.850Z,99736.38
2022-11-10T22:56:53.983Z,99736.06
2022-11-10T22:59:20.717Z,99727.75
2022-11-10T23:01:47.345Z,99724.22
2022-11-10T23:04:16.116Z,99723.88
2022-11-10T23:06:43.169Z,99733.69
2022-11-10T23:09:09.768Z,99727.97
2022-11-10T23:11:36.448Z,99738.38
2022-11-10T23:14:03.180Z,99748.47
2022-11-10T23:16:33.800Z,99743.31
2022-11-10T23:19:00.794Z,99744.84
2022-11-10T23:21:29.384Z,99755.09
2022-11-10T23:23:56.189Z,99753.34
2022-11-10T23:26:25.363Z,99752.63
2022-11-10T23:28:53.188Z,99754.03
2022-11-10T23:31:24.955Z,99760.59
2022-11-10T23:33:54.310Z,99764.75
2022-11-10T23:36:22.664Z,99756.81
2022-11-10T23:38:49.245Z,99762.25
2022-11-10T23:41:20.952Z,99762.06
2022-11-10T23:43:47.844Z,99746.78
2022-11-10T23:46:14.508Z,99755.59
2022-11-10T23:48:41.484Z,99754.47
2022-11-10T23:51:10.681Z,99756.09
2022-11-10T23:53:37.207Z,99756.09
2022-11-10T23:56:06.826Z,99754.00
2022-11-10T23:58:33.527Z,99762.59
